createdAt,value
2022-11-10T00:00:14.979Z,65.15
2022-11-10T00:01:15.169Z,65.25
2022-11-10T00:02:15.353Z,65.25
2022-11-10T00:03:15.540Z,65.25
2022-11-10T00:04:16.752Z,65.15
2022-11-10T00:05:15.906Z,65.15
2022-11-10T00:06:16.100Z,65.25
2022-11-10T00:07:16.229Z,65.15
2022-11-10T00:08:16.388Z,65.15
2022-11-10T00:09:16.554Z,65.15
2022-11-10T00:10:16.718Z,65.15
2022-11-10T00:11:16.884Z,65.15
2022-11-10T00:12:17.101Z,65.05
2022-11-10T00:13:17.231Z,64.85
2022-11-10T00:14:17.419Z,64.95
2022-11-10T00:15:17.554Z,64.64
2022-11-10T00:16:17.751Z,64.75
2022-11-10T00:17:17.880Z,64.51
2022-11-10T00:18:18.069Z,64.61
2022-11-10T00:19:18.210Z,64.31
2022-11-10T00:20:18.379Z,64.31
2022-11-10T00:21:18.585Z,64.31
2022-11-10T00:22:18.752Z,64.31
2022-11-10T00:23:19.104Z,64.21
2022-11-10T00:24:19.093Z,64.01
2022-11-10T00:25:19.308Z,64.11
2022-11-10T00:26:19.430Z,64.01
2022-11-10T00:27:19.600Z,63.81
2022-11-10T00:28:19.760Z,63.67
2022-11-10T00:29:19.937Z,63.67
2022-11-10T00:30:20.111Z,63.57
2022-11-10T00:31:20.278Z,63.47
2022-11-10T00:32:20.445Z,63.47
2022-11-10T00:33:20.847Z,63.47
2022-11-10T00:34:20.779Z,63.07
2022-11-10T00:35:20.942Z,62.96
2022-11-10T00:36:21.126Z,63.17
2022-11-10T00:37:21.286Z,63.07
2022-11-10T00:38:21.487Z,62.86
2022-11-10T00:39:21.614Z,62.86
2022-11-10T00:40:21.810Z,62.84
2022-11-10T00:41:22.030Z,62.93
2022-11-10T00:42:22.131Z,62.73
2022-11-10T00:43:26.356Z,62.84
2022-11-10T00:44:23.472Z,62.73
2022-11-10T00:45:22.713Z,62.53
2022-11-10T00:46:22.858Z,61.92
2022-11-10T00:47:23.004Z,62.23
2022-11-10T00:48:23.152Z,62.23
2022-11-10T00:49:23.315Z,62.33
2022-11-10T00:50:23.503Z,62.23
2022-11-10T00:51:23.686Z,62.33
2022-11-10T00:52:23.845Z,62.33
2022-11-10T00:53:24.404Z,61.82
2022-11-10T00:54:24.181Z,62.02
2022-11-10T00:55:24.341Z,61.52
2022-11-10T00:56:24.523Z,61.62
2022-11-10T00:57:24.694Z,61.52
2022-11-10T00:58:24.888Z,61.41
2022-11-10T00:59:25.039Z,62.02
2022-11-10T01:00:25.222Z,61.82
2022-11-10T01:01:25.598Z,61.41
2022-11-10T01:02:25.580Z,61.52
2022-11-10T01:03:25.741Z,61.92
2022-11-10T01:04:25.907Z,61.62
2022-11-10T01:05:26.073Z,62.02
2022-11-10T01:06:26.241Z,61.52
2022-11-10T01:07:26.413Z,61.21
2022-11-10T01:08:26.592Z,61.41
2022-11-10T01:09:26.754Z,61.52
2022-11-10T01:10:26.928Z,61.62
2022-11-10T01:11:27.130Z,61.62
2022-11-10T01:12:27.263Z,61.52
2022-11-10T01:13:27.425Z,61.52
2022-11-10T01:14:27.590Z,61.62
2022-11-10T01:15:28.225Z,61.21
2022-11-10T01:16:27.923Z,61.32
2022-11-10T01:17:28.081Z,61.62
2022-11-10T01:18:28.273Z,61.52
2022-11-10T01:19:28.436Z,61.41
2022-11-10T01:20:28.593Z,61.41
2022-11-10T01:21:28.796Z,61.62
2022-11-10T01:22:28.923Z,61.75
2022-11-10T01:23:29.113Z,61.75
2022-11-10T01:24:29.262Z,61.75
2022-11-10T01:25:29.424Z,61.65
2022-11-10T01:26:29.604Z,61.75
2022-11-10T01:27:29.772Z,61.85
2022-11-10T01:28:29.924Z,61.95
2022-11-10T01:29:30.107Z,62.05
2022-11-10T01:30:30.268Z,62.26
2022-11-10T01:31:30.478Z,62.26
2022-11-10T01:32:30.613Z,62.38
2022-11-10T01:33:30.821Z,62.38
2022-11-10T01:34:30.961Z,62.38
2022-11-10T01:35:31.123Z,62.59
2022-11-10T01:36:31.391Z,62.69
2022-11-10T01:37:31.457Z,62.69
2022-11-10T01:38:31.627Z,62.79
2022-11-10T01:39:31.813Z,62.99
2022-11-10T01:40:32.010Z,63.09
2022-11-10T01:41:32.169Z,63.20
2022-11-10T01:42:32.294Z,63.09
2022-11-10T01:43:32.454Z,63.09
2022-11-10T01:44:32.634Z,63.20
2022-11-10T01:45:32.825Z,63.20
2022-11-10T01:46:32.982Z,63.20
2022-11-10T01:47:33.133Z,63.20
2022-11-10T01:48:33.325Z,62.99
2022-11-10T01:49:33.474Z,62.99
2022-11-10T01:50:33.654Z,62.89
2022-11-10T01:51:33.835Z,62.89
2022-11-10T01:52:33.996Z,62.99
2022-11-10T01:53:34.185Z,62.79
2022-11-10T01:54:34.349Z,62.89
2022-11-10T01:55:34.529Z,62.89
2022-11-10T01:56:34.696Z,62.89
2022-11-10T01:57:34.859Z,62.69
2022-11-10T01:58:35.004Z,62.49
2022-11-10T01:59:35.200Z,62.69
2022-11-10T02:00:35.366Z,62.66
2022-11-10T02:01:35.525Z,62.56
2022-11-10T02:02:35.693Z,62.35
2022-11-10T02:03:36.704Z,62.26
2022-11-10T02:04:36.036Z,62.15
2022-11-10T02:05:36.167Z,62.26
2022-11-10T02:06:36.437Z,62.15
2022-11-10T02:07:36.545Z,62.05
2022-11-10T02:08:36.762Z,61.95
2022-11-10T02:09:36.926Z,61.75
2022-11-10T02:10:37.045Z,61.75
2022-11-10T02:11:37.224Z,61.65
2022-11-10T02:12:37.473Z,61.65
2022-11-10T02:13:37.573Z,61.75
2022-11-10T02:14:37.736Z,61.55
2022-11-10T02:15:37.913Z,61.65
2022-11-10T02:16:38.075Z,61.35
2022-11-10T02:17:38.253Z,61.41
2022-11-10T02:18:38.427Z,61.32
2022-11-10T02:19:38.565Z,61.21
2022-11-10T02:20:38.724Z,61.11
2022-11-10T02:21:38.914Z,61.24
2022-11-10T02:22:39.054Z,61.32
2022-11-10T02:23:39.283Z,61.14
2022-11-10T02:24:39.456Z,61.32
2022-11-10T02:25:39.658Z,61.21
2022-11-10T02:26:39.784Z,60.91
2022-11-10T02:27:39.967Z,60.91
2022-11-10T02:28:40.140Z,61.01
2022-11-10T02:29:40.313Z,60.91
2022-11-10T02:30:40.473Z,60.81
2022-11-10T02:31:40.645Z,61.01
2022-11-10T02:32:40.815Z,60.91
2022-11-10T02:33:40.974Z,60.91
2022-11-10T02:34:41.144Z,60.71
2022-11-10T02:35:41.304Z,60.81
2022-11-10T02:36:41.475Z,60.81
2022-11-10T02:37:41.635Z,60.81
2022-11-10T02:38:41.795Z,60.71
2022-11-10T02:39:41.954Z,60.71
2022-11-10T02:40:42.115Z,60.61
2022-11-10T02:41:42.325Z,60.81
2022-11-10T02:42:42.451Z,60.61
2022-11-10T02:43:42.615Z,60.71
2022-11-10T02:44:42.772Z,60.71
2022-11-10T02:45:42.970Z,60.61
2022-11-10T02:46:43.134Z,60.41
2022-11-10T02:47:43.296Z,60.61
2022-11-10T02:48:43.457Z,60.30
2022-11-10T02:49:43.614Z,60.30
2022-11-10T02:50:43.776Z,60.50
2022-11-10T02:51:43.947Z,60.41
2022-11-10T02:52:44.104Z,60.20
2022-11-10T02:53:44.265Z,60.50
2022-11-10T02:54:44.424Z,60.41
2022-11-10T02:55:44.585Z,60.41
2022-11-10T02:56:44.743Z,60.30
2022-11-10T02:57:44.904Z,60.20
2022-11-10T02:58:45.066Z,60.50
2022-11-10T02:59:45.227Z,60.50
2022-11-10T03:00:45.384Z,60.41
2022-11-10T03:01:45.644Z,60.41
2022-11-10T03:02:45.713Z,60.41
2022-11-10T03:03:45.881Z,60.30
2022-11-10T03:04:46.042Z,60.50
2022-11-10T03:05:46.234Z,60.20
2022-11-10T03:06:46.451Z,60.30
2022-11-10T03:07:46.575Z,60.20
2022-11-10T03:08:46.732Z,60.20
2022-11-10T03:09:46.938Z,60.20
2022-11-10T03:10:47.102Z,60.30
2022-11-10T03:11:47.284Z,60.20
2022-11-10T03:12:47.445Z,60.30
2022-11-10T03:14:00.922Z,60.50
2022-11-10T03:14:48.796Z,60.41
2022-11-10T03:15:47.984Z,60.50
2022-11-10T03:16:48.156Z,60.41
2022-11-10T03:17:48.314Z,60.43
2022-11-10T03:18:48.469Z,60.50
2022-11-10T03:19:48.664Z,60.63
2022-11-10T03:20:48.827Z,60.63
2022-11-10T03:21:49.013Z,60.43
2022-11-10T03:22:49.165Z,60.63
2022-11-10T03:23:49.323Z,60.63
2022-11-10T03:24:49.488Z,60.63
2022-11-10T03:25:49.686Z,60.74
2022-11-10T03:26:49.854Z,60.77
2022-11-10T03:27:50.017Z,60.97
2022-11-10T03:28:50.176Z,61.07
2022-11-10T03:29:50.334Z,61.07
2022-11-10T03:30:50.498Z,61.07
2022-11-10T03:31:50.662Z,61.17
2022-11-10T03:32:50.824Z,61.27
2022-11-10T03:33:50.984Z,61.47
2022-11-10T03:34:51.135Z,61.40
2022-11-10T03:35:51.305Z,61.40
2022-11-10T03:36:51.489Z,61.60
2022-11-10T03:37:51.628Z,61.71
2022-11-10T03:38:51.822Z,62.01
2022-11-10T03:39:51.986Z,62.14
2022-11-10T03:41:53.342Z,62.45
2022-11-10T03:42:52.475Z,62.24
2022-11-10T03:43:52.675Z,62.24
2022-11-10T03:44:52.826Z,62.45
2022-11-10T03:45:53.024Z,62.45
2022-11-10T03:46:53.194Z,62.85
2022-11-10T03:47:53.356Z,62.98
2022-11-10T03:48:53.900Z,62.98
2022-11-10T03:49:53.695Z,62.98
2022-11-10T03:50:53.856Z,62.98
2022-11-10T03:51:54.044Z,62.88
2022-11-10T03:52:54.165Z,63.18
2022-11-10T03:53:54.355Z,63.18
2022-11-10T03:54:58.041Z,63.18
2022-11-10T03:55:55.705Z,63.08
2022-11-10T03:56:54.895Z,63.08
2022-11-10T03:57:55.058Z,63.18
2022-11-10T03:58:55.215Z,63.18
2022-11-10T03:59:55.383Z,63.29
2022-11-10T04:00:55.536Z,63.08
2022-11-10T04:01:55.750Z,63.39
2022-11-10T04:02:55.885Z,63.49
2022-11-10T04:03:56.076Z,63.49
2022-11-10T04:04:56.235Z,63.39
2022-11-10T04:05:56.414Z,63.49
2022-11-10T04:06:56.642Z,63.26
2022-11-10T04:07:56.761Z,63.35
2022-11-10T04:08:56.906Z,63.26
2022-11-10T04:09:57.076Z,63.35
2022-11-10T04:10:57.236Z,63.15
2022-11-10T04:11:57.426Z,63.15
2022-11-10T04:12:57.587Z,63.15
2022-11-10T04:13:57.746Z,62.95
2022-11-10T04:14:57.913Z,63.15
2022-11-10T04:15:58.072Z,63.15
2022-11-10T04:16:58.252Z,63.15
2022-11-10T04:17:58.404Z,63.18
2022-11-10T04:18:58.574Z,63.18
2022-11-10T04:19:58.734Z,63.29
2022-11-10T04:20:58.895Z,63.18
2022-11-10T04:21:59.076Z,63.29
2022-11-10T04:22:59.225Z,63.29
2022-11-10T04:23:59.425Z,63.39
2022-11-10T04:24:59.579Z,63.59
2022-11-10T04:25:59.775Z,63.59
2022-11-10T04:26:59.945Z,63.62
2022-11-10T04:28:00.105Z,63.82
2022-11-10T04:29:00.267Z,63.82
2022-11-10T04:30:00.442Z,63.92
2022-11-10T04:31:00.584Z,64.43
2022-11-10T04:32:00.755Z,64.53
2022-11-10T04:33:00.915Z,64.33
2022-11-10T04:34:01.084Z,64.23
2022-11-10T04:35:01.235Z,64.43
2022-11-10T04:36:01.434Z,64.53
2022-11-10T04:37:01.605Z,64.33
2022-11-10T04:38:01.766Z,64.33
2022-11-10T04:39:01.946Z,64.23
2022-11-10T04:40:02.109Z,64.43
2022-11-10T04:41:02.267Z,64.43
2022-11-10T04:42:03.075Z,64.33
2022-11-10T04:43:02.634Z,64.33
2022-11-10T04:44:02.828Z,64.33
2022-11-10T04:45:02.988Z,64.33
2022-11-10T04:46:03.204Z,64.23
2022-11-10T04:47:06.418Z,64.23
2022-11-10T04:48:04.514Z,64.13
2022-11-10T04:49:03.655Z,64.03
2022-11-10T04:50:03.815Z,64.03
2022-11-10T04:51:03.966Z,64.13
2022-11-10T04:52:04.252Z,64.13
2022-11-10T04:53:04.348Z,64.23
2022-11-10T04:54:04.518Z,64.13
2022-11-10T04:55:04.685Z,64.03
2022-11-10T04:56:04.846Z,64.23
2022-11-10T04:57:05.026Z,64.33
2022-11-10T04:58:05.169Z,64.33
2022-11-10T04:59:05.325Z,64.23
2022-11-10T05:00:05.486Z,64.26
2022-11-10T05:01:05.684Z,64.26
2022-11-10T05:02:05.873Z,64.26
2022-11-10T05:03:05.997Z,64.15
2022-11-10T05:04:06.158Z,64.36
2022-11-10T05:05:06.349Z,64.56
2022-11-10T05:06:06.505Z,64.36
2022-11-10T05:07:06.752Z,64.76
2022-11-10T05:08:06.853Z,64.56
2022-11-10T05:09:07.014Z,64.87
2022-11-10T05:10:07.185Z,65.00
2022-11-10T05:11:07.357Z,64.90
2022-11-10T05:12:07.529Z,65.00
2022-11-10T05:13:07.685Z,65.30
2022-11-10T05:14:07.862Z,65.30
2022-11-10T05:15:08.027Z,65.51
2022-11-10T05:16:08.187Z,65.61
2022-11-10T05:17:08.355Z,65.84
2022-11-10T05:18:08.515Z,65.64
2022-11-10T05:19:08.686Z,65.84
2022-11-10T05:20:08.846Z,65.64
2022-11-10T05:21:09.006Z,65.64
2022-11-10T05:22:09.176Z,66.46
2022-11-10T05:23:09.336Z,66.25
2022-11-10T05:24:09.503Z,66.35
2022-11-10T05:25:09.663Z,66.15
2022-11-10T05:26:09.862Z,66.49
2022-11-10T05:27:10.025Z,66.38
2022-11-10T05:28:10.192Z,66.28
2022-11-10T05:29:10.345Z,66.28
2022-11-10T05:30:10.545Z,66.28
2022-11-10T05:31:10.665Z,66.38
2022-11-10T05:32:10.846Z,66.69
2022-11-10T05:33:11.006Z,66.79
2022-11-10T05:34:11.170Z,66.69
2022-11-10T05:35:11.332Z,66.69
2022-11-10T05:36:11.525Z,66.79
2022-11-10T05:37:11.705Z,66.99
2022-11-10T05:38:11.867Z,67.30
2022-11-10T05:39:12.025Z,67.19
2022-11-10T05:40:12.224Z,67.43
2022-11-10T05:41:12.377Z,67.53
2022-11-10T05:42:12.575Z,67.53
2022-11-10T05:43:12.746Z,67.33
2022-11-10T05:44:12.904Z,67.43
2022-11-10T05:45:13.066Z,67.43
2022-11-10T05:46:13.227Z,67.33
2022-11-10T05:47:13.405Z,67.33
2022-11-10T05:48:13.572Z,67.22
2022-11-10T05:49:13.724Z,67.22
2022-11-10T05:50:13.885Z,67.63
2022-11-10T05:51:14.044Z,67.63
2022-11-10T05:52:14.224Z,67.53
2022-11-10T05:53:14.387Z,67.53
2022-11-10T05:54:14.544Z,67.74
2022-11-10T05:55:14.704Z,67.63
2022-11-10T05:56:14.906Z,67.53
2022-11-10T05:57:15.092Z,67.74
2022-11-10T05:58:15.235Z,67.74
2022-11-10T05:59:15.414Z,67.83
2022-11-10T06:00:15.597Z,67.87
2022-11-10T06:01:15.776Z,67.87
2022-11-10T06:02:15.963Z,67.77
2022-11-10T06:03:16.176Z,68.18
2022-11-10T06:04:16.285Z,68.07
2022-11-10T06:05:16.504Z,67.77
2022-11-10T06:06:16.657Z,67.97
2022-11-10T06:07:16.880Z,68.07
2022-11-10T06:08:17.024Z,67.97
2022-11-10T06:09:17.213Z,68.07
2022-11-10T06:10:17.366Z,68.38
2022-11-10T06:11:17.549Z,68.27
2022-11-10T06:12:17.754Z,68.58
2022-11-10T06:13:17.898Z,68.48
2022-11-10T06:14:18.094Z,68.38
2022-11-10T06:15:18.285Z,68.58
2022-11-10T06:16:18.474Z,68.48
2022-11-10T06:17:18.660Z,68.68
2022-11-10T06:18:18.809Z,68.58
2022-11-10T06:19:18.963Z,68.38
2022-11-10T06:20:19.154Z,68.38
2022-11-10T06:21:19.303Z,68.27
2022-11-10T06:22:19.540Z,68.48
2022-11-10T06:23:20.031Z,68.38
2022-11-10T06:24:19.844Z,68.58
2022-11-10T06:25:20.051Z,68.68
2022-11-10T06:26:20.193Z,68.38
2022-11-10T06:27:20.383Z,68.79
2022-11-10T06:28:20.573Z,68.58
2022-11-10T06:29:26.485Z,68.38
2022-11-10T06:30:21.946Z,68.79
2022-11-10T06:31:21.102Z,68.79
2022-11-10T06:32:21.263Z,68.99
2022-11-10T06:33:21.795Z,69.19
2022-11-10T06:34:21.618Z,68.68
2022-11-10T06:35:21.810Z,68.99
2022-11-10T06:36:22.001Z,69.09
2022-11-10T06:37:22.154Z,68.88
2022-11-10T06:38:22.330Z,69.09
2022-11-10T06:39:22.512Z,68.68
2022-11-10T06:40:22.691Z,68.79
2022-11-10T06:41:25.399Z,68.48
2022-11-10T06:42:23.052Z,68.58
2022-11-10T06:43:23.515Z,68.27
2022-11-10T06:44:23.443Z,68.79
2022-11-10T06:45:23.598Z,68.48
2022-11-10T06:46:23.739Z,68.38
2022-11-10T06:47:23.987Z,68.07
2022-11-10T06:48:24.084Z,68.18
2022-11-10T06:49:24.244Z,68.55
2022-11-10T06:50:24.405Z,68.35
2022-11-10T06:51:24.571Z,68.55
2022-11-10T06:52:24.742Z,68.35
2022-11-10T06:53:27.162Z,68.24
2022-11-10T06:54:25.072Z,68.35
2022-11-10T06:55:25.232Z,68.04
2022-11-10T06:56:25.404Z,68.21
2022-11-10T06:57:25.590Z,68.32
2022-11-10T06:58:25.763Z,68.32
2022-11-10T06:59:25.942Z,67.71
2022-11-10T07:00:26.124Z,67.80
2022-11-10T07:01:26.677Z,67.67
2022-11-10T07:02:26.485Z,67.67
2022-11-10T07:03:26.665Z,67.16
2022-11-10T07:04:26.842Z,67.24
2022-11-10T07:05:27.024Z,67.33
2022-11-10T07:06:27.201Z,67.33
2022-11-10T07:07:27.342Z,67.24
2022-11-10T07:08:27.523Z,67.10
2022-11-10T07:09:27.713Z,66.69
2022-11-10T07:10:27.892Z,66.69
2022-11-10T07:11:28.101Z,66.60
2022-11-10T07:12:28.243Z,66.46
2022-11-10T07:13:28.432Z,66.16
2022-11-10T07:14:28.602Z,66.26
2022-11-10T07:15:28.793Z,65.85
2022-11-10T07:16:28.966Z,65.85
2022-11-10T07:17:29.123Z,65.65
2022-11-10T07:18:29.282Z,65.55
2022-11-10T07:19:29.482Z,65.55
2022-11-10T07:20:29.622Z,65.55
2022-11-10T07:21:29.821Z,65.45
2022-11-10T07:22:29.962Z,65.45
2022-11-10T07:23:30.151Z,65.45
2022-11-10T07:24:30.449Z,65.45
2022-11-10T07:25:30.492Z,65.45
2022-11-10T07:26:30.696Z,65.45
2022-11-10T07:27:30.831Z,65.34
2022-11-10T07:28:31.008Z,65.45
2022-11-10T07:29:31.192Z,65.34
2022-11-10T07:30:31.371Z,65.45
2022-11-10T07:31:31.562Z,65.45
2022-11-10T07:32:31.715Z,65.34
2022-11-10T07:33:31.891Z,65.24
2022-11-10T07:34:32.076Z,65.24
2022-11-10T07:35:32.252Z,65.34
2022-11-10T07:36:32.483Z,65.24
2022-11-10T07:37:32.632Z,65.21
2022-11-10T07:38:32.812Z,65.21
2022-11-10T07:39:32.991Z,65.11
2022-11-10T07:40:33.172Z,65.11
2022-11-10T07:41:33.384Z,65.11
2022-11-10T07:42:33.515Z,65.11
2022-11-10T07:43:33.710Z,65.01
2022-11-10T07:44:33.892Z,64.91
2022-11-10T07:45:34.061Z,64.91
2022-11-10T07:46:34.231Z,64.78
2022-11-10T07:47:34.382Z,64.78
2022-11-10T07:48:34.541Z,64.67
2022-11-10T07:49:34.722Z,64.58
2022-11-10T07:50:34.913Z,64.37
2022-11-10T07:51:35.110Z,64.24
2022-11-10T07:52:35.290Z,64.04
2022-11-10T07:53:35.462Z,63.83
2022-11-10T07:54:35.642Z,63.50
2022-11-10T07:55:35.836Z,63.50
2022-11-10T07:56:35.998Z,63.40
2022-11-10T07:57:36.146Z,63.07
2022-11-10T07:58:36.333Z,62.96
2022-11-10T07:59:36.523Z,62.76
2022-11-10T08:00:36.702Z,62.53
2022-11-10T08:01:36.931Z,61.59
2022-11-10T08:02:37.008Z,60.82
2022-11-10T08:03:37.217Z,59.48
2022-11-10T08:04:37.374Z,58.52
2022-11-10T08:05:37.530Z,57.45
2022-11-10T08:06:37.797Z,56.82
2022-11-10T08:07:37.952Z,55.46
2022-11-10T08:08:38.042Z,55.13
2022-11-10T08:09:38.182Z,54.53
2022-11-10T08:10:38.393Z,54.43
2022-11-10T08:11:38.542Z,54.43
2022-11-10T08:12:38.731Z,53.60
2022-11-10T08:13:38.862Z,53.70
2022-11-10T08:14:39.053Z,53.60
2022-11-10T08:15:39.286Z,53.88
2022-11-10T08:16:39.415Z,53.17
2022-11-10T08:17:39.595Z,52.87
2022-11-10T08:18:39.804Z,52.67
2022-11-10T08:19:39.916Z,52.34
2022-11-10T08:20:40.102Z,51.49
2022-11-10T08:21:40.276Z,51.09
2022-11-10T08:22:40.404Z,50.66
2022-11-10T08:23:40.583Z,49.91
2022-11-10T08:24:40.764Z,49.04
2022-11-10T08:25:40.933Z,47.57
2022-11-10T08:26:41.157Z,46.01
2022-11-10T08:27:41.300Z,44.96
2022-11-10T08:28:41.446Z,43.63
2022-11-10T08:29:41.604Z,42.09
2022-11-10T08:30:41.824Z,41.28
2022-11-10T08:31:41.972Z,41.14
2022-11-10T08:32:42.170Z,40.42
2022-11-10T08:33:42.296Z,40.01
2022-11-10T08:34:42.445Z,39.67
2022-11-10T08:35:42.696Z,38.56
2022-11-10T08:36:42.806Z,38.36
2022-11-10T08:37:42.992Z,39.09
2022-11-10T08:38:43.171Z,39.63
2022-11-10T08:39:43.387Z,40.22
2022-11-10T08:40:43.552Z,40.64
2022-11-10T08:41:43.717Z,40.86
2022-11-10T08:42:43.875Z,41.39
2022-11-10T08:43:44.018Z,42.03
2022-11-10T08:44:44.226Z,43.05
2022-11-10T08:45:44.439Z,42.73
2022-11-10T08:46:44.557Z,42.31
2022-11-10T08:47:44.704Z,41.99
2022-11-10T08:48:44.874Z,40.86
2022-11-10T08:49:45.087Z,40.34
2022-11-10T08:50:45.237Z,40.26
2022-11-10T08:51:45.472Z,40.34
2022-11-10T08:52:45.681Z,39.95
2022-11-10T08:53:45.748Z,40.14
2022-11-10T08:54:45.940Z,40.26
2022-11-10T08:55:46.120Z,40.56
2022-11-10T08:56:46.283Z,40.86
2022-11-10T08:57:46.429Z,40.98
2022-11-10T08:58:52.971Z,40.86
2022-11-10T08:59:47.809Z,40.24
2022-11-10T09:00:46.998Z,40.24
2022-11-10T09:01:47.156Z,39.83
2022-11-10T09:02:47.329Z,40.24
2022-11-10T09:03:47.519Z,40.58
2022-11-10T09:04:47.722Z,41.00
2022-11-10T09:05:47.869Z,41.50
2022-11-10T09:06:48.065Z,41.30
2022-11-10T09:07:48.193Z,41.08
2022-11-10T09:08:48.391Z,41.08
2022-11-10T09:10:05.953Z,40.78
2022-11-10T09:10:49.739Z,40.88
2022-11-10T09:11:48.900Z,40.86
2022-11-10T09:12:49.079Z,40.56
2022-11-10T09:13:49.240Z,40.98
2022-11-10T09:14:49.411Z,40.66
2022-11-10T09:15:49.612Z,40.54
2022-11-10T09:16:49.758Z,39.83
2022-11-10T09:17:49.932Z,40.05
2022-11-10T09:18:50.134Z,40.88
2022-11-10T09:19:50.303Z,41.20
2022-11-10T09:20:50.461Z,42.35
2022-11-10T09:21:50.621Z,43.59
2022-11-10T09:22:50.790Z,44.01
2022-11-10T09:23:50.979Z,44.63
2022-11-10T09:24:51.141Z,45.05
2022-11-10T09:25:51.332Z,45.65
2022-11-10T09:26:51.513Z,45.97
2022-11-10T09:27:51.632Z,46.00
2022-11-10T09:28:51.817Z,46.69
2022-11-10T09:29:51.973Z,46.81
2022-11-10T09:30:52.155Z,46.84
2022-11-10T09:31:52.321Z,47.14
2022-11-10T09:32:52.491Z,47.76
2022-11-10T09:33:52.712Z,47.96
2022-11-10T09:34:53.300Z,48.19
2022-11-10T09:35:53.043Z,48.79
2022-11-10T09:36:53.192Z,49.21
2022-11-10T09:37:53.355Z,49.41
2022-11-10T09:38:53.502Z,49.41
2022-11-10T09:39:53.692Z,49.74
2022-11-10T09:40:53.892Z,50.04
2022-11-10T09:41:54.033Z,50.26
2022-11-10T09:42:54.215Z,50.56
2022-11-10T09:43:54.401Z,51.17
2022-11-10T09:44:54.572Z,51.19
2022-11-10T09:45:54.774Z,51.19
2022-11-10T09:46:54.943Z,51.31
2022-11-10T09:47:57.798Z,51.51
2022-11-10T09:48:55.324Z,51.74
2022-11-10T09:49:55.485Z,51.94
2022-11-10T09:50:55.666Z,52.17
2022-11-10T09:51:55.797Z,52.57
2022-11-10T09:52:55.973Z,52.87
2022-11-10T09:53:56.172Z,53.20
2022-11-10T09:54:56.352Z,53.09
2022-11-10T09:55:56.554Z,53.40
2022-11-10T09:56:56.714Z,53.70
2022-11-10T09:57:56.893Z,53.70
2022-11-10T09:58:57.078Z,53.70
2022-11-10T09:59:57.264Z,53.90
2022-11-10T10:00:57.434Z,53.90
2022-11-10T10:01:57.632Z,53.77
2022-11-10T10:02:57.769Z,53.47
2022-11-10T10:03:57.929Z,53.77
2022-11-10T10:04:58.099Z,53.17
2022-11-10T10:05:58.302Z,53.20
2022-11-10T10:07:10.808Z,53.09
2022-11-10T10:07:59.691Z,53.30
2022-11-10T10:08:58.775Z,53.50
2022-11-10T10:09:58.964Z,53.90
2022-11-10T10:10:59.178Z,53.90
2022-11-10T10:11:59.342Z,54.00
2022-11-10T10:12:59.495Z,53.40
2022-11-10T10:13:59.687Z,53.40
2022-11-10T10:14:59.866Z,53.50
2022-11-10T10:16:00.086Z,53.90
2022-11-10T10:17:00.245Z,53.60
2022-11-10T10:18:00.433Z,54.10
2022-11-10T10:19:00.613Z,53.80
2022-11-10T10:20:00.774Z,53.83
2022-11-10T10:21:00.945Z,54.03
2022-11-10T10:22:01.094Z,53.52
2022-11-10T10:23:01.286Z,54.03
2022-11-10T10:24:12.595Z,54.35
2022-11-10T10:25:02.618Z,54.15
2022-11-10T10:26:01.816Z,54.35
2022-11-10T10:27:01.968Z,54.46
2022-11-10T10:28:02.147Z,54.25
2022-11-10T10:29:02.336Z,54.46
2022-11-10T10:30:02.536Z,54.46
2022-11-10T10:31:02.676Z,54.25
2022-11-10T10:32:02.865Z,54.25
2022-11-10T10:33:03.039Z,54.25
2022-11-10T10:34:03.264Z,54.55
2022-11-10T10:35:03.395Z,54.55
2022-11-10T10:36:03.586Z,54.35
2022-11-10T10:37:03.755Z,54.23
2022-11-10T10:38:03.945Z,54.23
2022-11-10T10:39:04.128Z,54.23
2022-11-10T10:40:04.326Z,54.43
2022-11-10T10:41:04.499Z,54.13
2022-11-10T10:42:04.675Z,54.53
2022-11-10T10:43:04.857Z,54.33
2022-11-10T10:44:05.036Z,54.33
2022-11-10T10:45:05.559Z,54.23
2022-11-10T10:46:05.376Z,54.43
2022-11-10T10:47:05.570Z,54.23
2022-11-10T10:48:05.757Z,54.33
2022-11-10T10:49:27.531Z,54.23
2022-11-10T10:50:07.116Z,54.13
2022-11-10T10:51:06.266Z,54.43
2022-11-10T10:52:06.477Z,54.23
2022-11-10T10:53:06.617Z,54.53
2022-11-10T10:54:06.767Z,54.43
2022-11-10T10:55:06.962Z,54.13
2022-11-10T10:56:07.114Z,54.53
2022-11-10T10:57:07.291Z,54.43
2022-11-10T10:58:07.466Z,54.53
2022-11-10T10:59:07.666Z,54.53
2022-11-10T11:00:07.826Z,54.83
2022-11-10T11:01:08.073Z,54.83
2022-11-10T11:02:08.195Z,54.86
2022-11-10T11:03:08.378Z,54.53
2022-11-10T11:04:08.557Z,54.86
2022-11-10T11:05:08.756Z,54.75
2022-11-10T11:06:08.897Z,54.86
2022-11-10T11:07:09.172Z,55.16
2022-11-10T11:08:09.247Z,55.16
2022-11-10T11:09:09.431Z,55.16
2022-11-10T11:10:09.617Z,55.26
2022-11-10T11:11:09.807Z,55.56
2022-11-10T11:12:09.988Z,55.26
2022-11-10T11:13:10.148Z,55.46
2022-11-10T11:14:10.337Z,55.36
2022-11-10T11:15:10.548Z,55.59
2022-11-10T11:16:10.732Z,55.49
2022-11-10T11:17:11.859Z,55.46
2022-11-10T11:18:11.029Z,55.26
2022-11-10T11:19:11.201Z,55.36
2022-11-10T11:20:11.413Z,55.66
2022-11-10T11:21:11.568Z,55.56
2022-11-10T11:22:11.743Z,55.26
2022-11-10T11:23:11.928Z,55.36
2022-11-10T11:24:12.086Z,55.36
2022-11-10T11:25:12.287Z,55.76
2022-11-10T11:26:12.552Z,55.06
2022-11-10T11:27:12.649Z,55.26
2022-11-10T11:28:12.799Z,54.93
2022-11-10T11:29:12.978Z,54.93
2022-11-10T11:30:14.108Z,55.16
2022-11-10T11:31:13.348Z,55.23
2022-11-10T11:32:13.529Z,55.13
2022-11-10T11:33:13.729Z,55.23
2022-11-10T11:34:13.912Z,55.13
2022-11-10T11:35:14.099Z,54.83
2022-11-10T11:36:14.249Z,55.03
2022-11-10T11:37:19.251Z,55.43
2022-11-10T11:38:15.668Z,54.93
2022-11-10T11:39:14.809Z,54.93
2022-11-10T11:40:14.992Z,55.03
2022-11-10T11:41:15.139Z,54.93
2022-11-10T11:42:15.326Z,54.73
2022-11-10T11:43:15.508Z,54.83
2022-11-10T11:44:15.680Z,55.03
2022-11-10T11:45:15.848Z,55.16
2022-11-10T11:46:16.082Z,55.03
2022-11-10T11:47:16.201Z,55.23
2022-11-10T11:48:16.359Z,54.83
2022-11-10T11:49:16.593Z,54.93
2022-11-10T11:50:16.723Z,54.83
2022-11-10T11:51:16.945Z,55.03
2022-11-10T11:52:17.073Z,54.93
2022-11-10T11:53:17.254Z,55.03
2022-11-10T11:54:17.410Z,54.73
2022-11-10T11:55:17.558Z,54.50
2022-11-10T11:56:17.739Z,54.50
2022-11-10T11:57:17.928Z,54.50
2022-11-10T11:58:18.171Z,54.28
2022-11-10T11:59:18.299Z,53.77
2022-11-10T12:00:18.480Z,53.97
2022-11-10T12:01:18.659Z,53.77
2022-11-10T12:02:18.883Z,53.25
2022-11-10T12:03:19.037Z,53.55
2022-11-10T12:04:19.199Z,53.05
2022-11-10T12:05:19.349Z,53.05
2022-11-10T12:06:19.529Z,52.72
2022-11-10T12:07:19.761Z,52.32
2022-11-10T12:08:20.208Z,52.01
2022-11-10T12:09:20.087Z,52.12
2022-11-10T12:10:20.221Z,52.09
2022-11-10T12:11:20.549Z,52.29
2022-11-10T12:12:20.600Z,52.09
2022-11-10T12:13:20.750Z,52.19
2022-11-10T12:14:20.949Z,51.69
2022-11-10T12:15:21.102Z,51.67
2022-11-10T12:16:21.293Z,51.56
2022-11-10T12:17:21.461Z,51.67
2022-11-10T12:18:21.992Z,51.76
2022-11-10T12:19:21.829Z,50.86
2022-11-10T12:20:21.994Z,51.37
2022-11-10T12:21:22.141Z,51.34
2022-11-10T12:22:22.320Z,51.04
2022-11-10T12:23:22.523Z,51.04
2022-11-10T12:24:22.734Z,50.74
2022-11-10T12:25:22.893Z,50.84
2022-11-10T12:26:23.032Z,50.94
2022-11-10T12:27:23.240Z,50.84
2022-11-10T12:28:23.940Z,50.54
2022-11-10T12:29:23.611Z,50.63
2022-11-10T12:30:23.712Z,50.84
2022-11-10T12:31:23.892Z,50.94
2022-11-10T12:32:24.072Z,50.74
2022-11-10T12:33:24.253Z,50.63
2022-11-10T12:34:24.450Z,50.94
2022-11-10T12:35:24.615Z,50.84
2022-11-10T12:36:24.761Z,50.74
2022-11-10T12:37:27.811Z,50.84
2022-11-10T12:38:25.340Z,50.63
2022-11-10T12:39:25.300Z,50.74
2022-11-10T12:40:25.441Z,50.94
2022-11-10T12:41:25.631Z,51.04
2022-11-10T12:42:25.821Z,50.74
2022-11-10T12:43:25.995Z,50.63
2022-11-10T12:44:26.154Z,50.74
2022-11-10T12:45:26.302Z,50.94
2022-11-10T12:46:26.482Z,50.94
2022-11-10T12:47:26.672Z,51.14
2022-11-10T12:48:26.851Z,50.71
2022-11-10T12:49:27.051Z,50.74
2022-11-10T12:50:27.204Z,50.81
2022-11-10T12:51:27.393Z,50.04
2022-11-10T12:52:27.573Z,50.13
2022-11-10T12:53:27.742Z,50.13
2022-11-10T12:54:27.893Z,50.13
2022-11-10T12:55:28.116Z,50.46